Time;durP1;ratioP1;P1;durP2;ratioP2;P2;SDS_P1;SDS_P2;PMS_P1;PMS_P2;Temp;Humidity;BMP_temperature;BMP_pressure;BME280_temperature;BME280_humidity;BME280_pressure;Samples;Min_cycle;Max_cycle;Signal;HPM_P1;HPM_P2
2023/05/27 00:02:18;;;;;;;9.63;2.70;;;;;;;9.53;91.16;102328.81;5053809;28;20443;-74
2023/05/27 00:04:44;;;;;;;10.57;2.20;;;;;;;9.50;91.26;102332.84;5053778;28;20533;-73
2023/05/27 00:07:11;;;;;;;13.73;3.27;;;;;;;9.42;91.46;102327.03;5053296;28;20482;-73
2023/05/27 00:09:37;;;;;;;6.77;2.17;;;;;;;9.34;92.14;102334.53;5053390;28;20482;-73
2023/05/27 00:12:06;;;;;;;6.33;2.13;;;;;;;9.31;92.67;102332.31;5053656;28;20529;-74
2023/05/27 00:14:32;;;;;;;7.00;2.10;;;;;;;9.30;92.25;102338.81;5053316;28;20530;-73
2023/05/27 00:17:01;;;;;;;13.13;3.03;;;;;;;9.28;92.47;102332.81;5053577;28;20469;-74
2023/05/27 00:19:29;;;;;;;8.53;2.37;;;;;;;9.25;92.77;102333.31;5053443;28;20470;-74
2023/05/27 00:21:56;;;;;;;10.20;2.23;;;;;;;9.21;93.11;102325.94;5052850;28;20453;-73
2023/05/27 00:24:22;;;;;;;13.10;3.33;;;;;;;9.09;93.54;102331.47;5053193;28;20529;-73
2023/05/27 00:26:49;;;;;;;20.83;2.70;;;;;;;9.12;93.47;102327.44;5053317;28;20474;-73
2023/05/27 00:29:18;;;;;;;6.27;2.10;;;;;;;9.05;93.47;102327.63;5053346;28;20878;-75
2023/05/27 00:31:44;;;;;;;7.63;2.27;;;;;;;9.07;93.07;102336.28;5053406;28;21008;-75
2023/05/27 00:34:11;;;;;;;10.83;2.63;;;;;;;8.95;93.82;102332.88;5053100;28;20940;-74
2023/05/27 00:36:38;;;;;;;7.07;2.60;;;;;;;9.06;94.01;102331.94;5052914;28;20441;-74
2023/05/27 00:39:05;;;;;;;6.53;1.70;;;;;;;9.17;92.72;102330.22;5053239;28;20498;-74
2023/05/27 00:41:32;;;;;;;11.53;2.80;;;;;;;9.09;92.54;102337.69;5053293;28;20803;-74
2023/05/27 00:43:59;;;;;;;10.53;2.37;;;;;;;9.02;91.41;102330.81;5052904;28;20484;-74
2023/05/27 00:46:27;;;;;;;10.03;2.77;;;;;;;8.96;90.38;102335.31;5053123;28;20446;-74
2023/05/27 00:48:53;;;;;;;9.17;2.60;;;;;;;8.98;88.92;102335.06;5052988;28;20482;-74
2023/05/27 00:51:21;;;;;;;8.20;2.70;;;;;;;8.80;88.36;102334.25;5052824;28;20826;-74
2023/05/27 00:53:47;;;;;;;8.70;2.23;;;;;;;8.63;88.88;102333.41;5053146;28;20442;-74
2023/05/27 00:56:15;;;;;;;8.33;2.57;;;;;;;8.54;91.38;102335.72;5053098;28;20446;-74
2023/05/27 00:58:43;;;;;;;6.97;2.70;;;;;;;8.58;91.20;102336.03;5052679;28;21037;-74
2023/05/27 01:01:10;;;;;;;9.33;3.07;;;;;;;8.61;92.71;102332.03;5052727;28;20932;-73
2023/05/27 01:03:38;;;;;;;9.70;2.27;;;;;;;8.64;93.14;102328.88;5053055;28;20478;-74
2023/05/27 01:06:16;;;;;;;24.47;2.63;;;;;;;8.67;93.45;102333.75;5052968;28;20449;-74
2023/05/27 01:08:56;;;;;;;12.30;2.80;;;;;;;8.57;94.62;102327.13;5052483;28;20497;-74
2023/05/27 01:11:29;;;;;;;7.97;2.10;;;;;;;8.45;95.74;102334.47;5053048;28;20461;-74
2023/05/27 01:14:01;;;;;;;7.23;2.60;;;;;;;8.50;95.80;102331.03;5053017;28;20427;-74
2023/05/27 01:16:30;;;;;;;7.30;2.27;;;;;;;8.47;96.61;102324.25;5052937;28;20433;-74
2023/05/27 01:18:59;;;;;;;10.47;2.70;;;;;;;8.45;94.89;102328.25;5052740;28;20473;-74
2023/05/27 01:21:30;;;;;;;7.83;2.20;;;;;;;8.47;95.51;102331.53;5052816;28;20449;-74
2023/05/27 01:24:03;;;;;;;7.93;1.97;;;;;;;8.42;95.31;102334.16;5052883;28;20444;-74
2023/05/27 01:26:30;;;;;;;6.73;1.70;;;;;;;8.28;94.94;102331.72;5052855;28;20439;-74
2023/05/27 01:28:57;;;;;;;7.73;2.47;;;;;;;8.33;95.04;102329.13;5052375;28;21060;-74
2023/05/27 01:31:30;;;;;;;11.03;2.53;;;;;;;8.39;94.18;102331.94;5052771;28;20478;-74
2023/05/27 01:34:03;;;;;;;9.03;2.20;;;;;;;8.33;94.40;102323.72;5055422;28;20927;-74
2023/05/27 01:36:34;;;;;;;8.13;2.00;;;;;;;8.25;94.45;102324.09;5056279;28;20582;-73
2023/05/27 01:39:04;;;;;;;7.00;2.07;;;;;;;8.11;95.68;102330.06;5056459;28;20470;-73
2023/05/27 01:41:31;;;;;;;7.60;1.90;;;;;;;8.21;94.93;102330.22;5056167;28;20501;-74
2023/05/27 01:43:59;;;;;;;7.70;2.80;;;;;;;8.19;94.88;102327.78;5056401;28;20536;-73
2023/05/27 01:46:25;;;;;;;7.07;2.03;;;;;;;8.20;94.32;102329.41;5056108;28;20448;-74
2023/05/27 01:48:52;;;;;;;5.93;1.93;;;;;;;8.06;94.28;102322.69;5055952;28;20489;-74
2023/05/27 01:51:19;;;;;;;7.40;2.17;;;;;;;8.18;94.22;102318.03;5056370;28;20481;-73
2023/05/27 01:53:45;;;;;;;8.30;2.10;;;;;;;8.16;94.12;102312.06;5055965;28;20441;-73
2023/05/27 01:56:13;;;;;;;8.50;1.77;;;;;;;8.10;93.75;102310.31;5056220;28;20511;-72
2023/05/27 01:58:40;;;;;;;9.57;2.60;;;;;;;8.03;93.55;102306.97;5056114;28;20506;-73
2023/05/27 02:01:06;;;;;;;8.10;2.90;;;;;;;8.03;93.91;102306.97;5056251;28;20445;-73
2023/05/27 02:03:33;;;;;;;10.27;2.80;;;;;;;8.07;91.83;102305.41;5055839;28;20966;-73
2023/05/27 02:05:59;;;;;;;6.37;2.10;;;;;;;7.93;91.46;102302.19;5055768;28;20529;-73
2023/05/27 02:08:27;;;;;;;8.40;2.20;;;;;;;7.86;90.07;102306.09;5055636;28;20493;-73
2023/05/27 02:10:54;;;;;;;10.53;2.60;;;;;;;7.78;89.89;102308.09;5055954;28;20827;-73
2023/05/27 02:13:22;;;;;;;11.67;2.30;;;;;;;7.76;90.08;102307.53;5057113;28;20477;-74
2023/05/27 02:15:48;;;;;;;7.07;2.40;;;;;;;7.75;89.17;102305.91;5055500;28;20445;-73
2023/05/27 02:18:15;;;;;;;7.37;2.17;;;;;;;7.74;89.99;102309.63;5055480;28;20462;-73
2023/05/27 02:20:42;;;;;;;7.40;1.83;;;;;;;7.73;91.86;102316.09;5055814;28;20542;-73
2023/05/27 02:23:08;;;;;;;6.87;1.90;;;;;;;7.75;92.64;102307.78;5055775;28;20485;-74
2023/05/27 02:25:35;;;;;;;10.47;2.83;;;;;;;7.66;93.50;102312.72;5055567;28;20966;-73
2023/05/27 02:28:02;;;;;;;10.97;2.47;;;;;;;7.74;93.42;102308.81;5055180;28;20524;-74
2023/05/27 02:30:31;;;;;;;16.13;2.53;;;;;;;7.58;94.08;102310.41;5055644;28;20447;-73
2023/05/27 02:32:57;;;;;;;10.70;2.60;;;;;;;7.57;93.72;102304.19;5055292;28;20515;-73
2023/05/27 02:35:24;;;;;;;7.93;2.73;;;;;;;7.49;93.99;102307.25;5055603;28;20442;-74
2023/05/27 02:37:51;;;;;;;8.23;2.33;;;;;;;7.44;94.27;102303.63;5055371;28;20545;-74
2023/05/27 02:40:24;;;;;;;9.07;2.77;;;;;;;7.46;94.12;102304.19;5055140;28;20533;-73
2023/05/27 02:42:51;;;;;;;9.30;3.37;;;;;;;7.36;94.43;102310.19;5055405;28;20441;-74
2023/05/27 02:45:18;;;;;;;14.00;3.20;;;;;;;7.37;94.52;102305.63;5055135;28;20446;-75
2023/05/27 02:47:46;;;;;;;9.07;2.93;;;;;;;7.28;94.43;102305.16;5055081;28;20512;-75
2023/05/27 02:50:12;;;;;;;7.97;2.70;;;;;;;7.30;94.41;102309.28;5055205;28;20533;-75
2023/05/27 02:52:39;;;;;;;11.87;2.90;;;;;;;7.26;94.31;102313.50;5055243;28;20456;-75
2023/05/27 02:55:07;;;;;;;9.10;3.20;;;;;;;7.26;94.59;102312.66;5054814;28;20940;-75
2023/05/27 02:57:34;;;;;;;9.30;3.03;;;;;;;7.21;94.71;102307.97;5055079;28;20493;-74
2023/05/27 03:00:00;;;;;;;9.37;3.27;;;;;;;7.23;94.84;102313.16;5055026;28;20529;-75
2023/05/27 03:02:27;;;;;;;7.83;2.80;;;;;;;7.23;94.66;102313.16;5055002;28;20438;-74
2023/05/27 03:04:56;;;;;;;8.40;2.50;;;;;;;7.26;94.29;102315.34;5055599;28;20525;-79
2023/05/27 03:07:23;;;;;;;9.73;3.17;;;;;;;7.18;94.62;102327.31;5055086;28;20460;-74
2023/05/27 03:09:49;;;;;;;7.57;2.60;;;;;;;7.06;95.79;102321.94;5054852;28;20492;-73
2023/05/27 03:12:16;;;;;;;12.27;2.70;;;;;;;7.08;95.84;102321.69;5054877;28;20468;-74
2023/05/27 03:14:43;;;;;;;12.40;3.40;;;;;;;7.21;94.91;102316.06;5054707;28;20449;-74
2023/05/27 03:17:09;;;;;;;9.20;3.23;;;;;;;7.33;92.75;102310.66;5054250;28;20478;-74
2023/05/27 03:19:36;;;;;;;9.40;2.60;;;;;;;7.49;91.33;102320.72;5054278;28;20465;-74
2023/05/27 03:22:04;;;;;;;8.17;2.63;;;;;;;7.47;90.18;102311.22;5054354;28;20441;-74
2023/05/27 03:24:31;;;;;;;10.60;2.87;;;;;;;7.41;89.38;102320.28;5054289;28;20965;-74
2023/05/27 03:26:57;;;;;;;12.87;2.73;;;;;;;7.33;89.02;102314.19;5054246;28;20489;-74
2023/05/27 03:29:24;;;;;;;6.53;2.00;;;;;;;7.25;89.05;102314.53;5054364;28;20486;-73
2023/05/27 03:31:50;;;;;;;6.37;2.27;;;;;;;7.34;88.90;102321.19;5054440;28;20442;-74
2023/05/27 03:34:17;;;;;;;8.60;2.17;;;;;;;7.48;87.78;102318.25;5054333;28;20448;-73
2023/05/27 03:36:46;;;;;;;7.00;1.70;;;;;;;7.39;90.58;102315.09;5053994;28;21034;-70
2023/05/27 03:39:14;;;;;;;8.67;3.10;;;;;;;7.25;93.04;102308.31;5054267;28;20516;-73
2023/05/27 03:41:40;;;;;;;15.83;2.90;;;;;;;7.27;93.35;102314.31;5053884;28;20809;-73
2023/05/27 03:44:07;;;;;;;10.27;2.33;;;;;;;7.33;93.24;102308.78;5054300;28;20456;-71
2023/05/27 03:46:34;;;;;;;12.53;2.77;;;;;;;7.32;93.94;102311.72;5054599;28;20448;-74
2023/05/27 03:49:01;;;;;;;9.17;2.90;;;;;;;7.27;94.25;102315.13;5053984;28;20482;-74
2023/05/27 03:51:27;;;;;;;7.90;2.43;;;;;;;7.42;93.94;102322.72;5054093;28;20513;-74
2023/05/27 03:53:54;;;;;;;9.37;2.70;;;;;;;7.41;94.61;102320.28;5053728;28;20474;-74
2023/05/27 03:56:22;;;;;;;7.90;2.80;;;;;;;7.45;94.58;102322.25;5053093;28;20448;-74
2023/05/27 03:58:51;;;;;;;7.67;2.40;;;;;;;7.63;93.98;102329.38;5053600;28;20490;-74
2023/05/27 04:01:17;;;;;;;7.20;2.30;;;;;;;7.58;94.88;102318.47;5053840;28;20438;-74
2023/05/27 04:03:44;;;;;;;7.33;2.50;;;;;;;7.50;95.07;102321.53;5053823;28;20547;-74
2023/05/27 04:06:11;;;;;;;8.67;2.70;;;;;;;7.50;95.19;102325.06;5053510;28;20939;-74
2023/05/27 04:08:39;;;;;;;7.80;2.73;;;;;;;7.63;94.93;102326.69;5053326;28;20531;-74
2023/05/27 04:11:05;;;;;;;8.97;2.20;;;;;;;7.68;95.27;102331.34;5053685;28;20511;-74
2023/05/27 04:13:33;;;;;;;7.83;2.60;;;;;;;7.90;94.92;102323.44;5053680;28;20877;-74
2023/05/27 04:16:00;;;;;;;7.17;2.53;;;;;;;7.87;95.07;102340.09;5053313;28;20991;-74
2023/05/27 04:18:26;;;;;;;8.20;2.33;;;;;;;7.92;95.21;102341.00;5053544;28;20795;-74
2023/05/27 04:20:53;;;;;;;6.60;2.00;;;;;;;8.10;94.42;102334.59;5053566;28;20453;-74
2023/05/27 04:23:20;;;;;;;8.10;2.50;;;;;;;8.24;94.24;102335.97;5053475;28;20477;-74
2023/05/27 04:25:48;;;;;;;9.60;2.30;;;;;;;8.26;95.08;102333.03;5053081;28;21053;-74
2023/05/27 04:28:15;;;;;;;7.70;2.57;;;;;;;8.40;95.40;102325.47;5053258;28;20616;-74
2023/05/27 04:30:43;;;;;;;7.70;2.70;;;;;;;8.64;94.66;102331.56;5053307;28;20509;-74
2023/05/27 04:33:11;;;;;;;12.43;2.47;;;;;;;8.73;94.69;102338.19;5053005;28;20839;-74
2023/05/27 04:35:37;;;;;;;8.70;2.50;;;;;;;8.79;94.11;102348.00;5053366;28;20450;-74
2023/05/27 04:38:04;;;;;;;11.53;3.50;;;;;;;8.97;93.49;102344.25;5052881;28;20501;-74
2023/05/27 04:40:31;;;;;;;7.97;2.67;;;;;;;9.06;93.18;102337.34;5052944;28;20913;-74
2023/05/27 04:42:57;;;;;;;10.13;2.60;;;;;;;9.14;94.13;102344.22;5053227;28;20495;-74
2023/05/27 04:45:24;;;;;;;10.67;2.43;;;;;;;9.18;93.59;102348.06;5053212;28;20470;-75
2023/05/27 04:47:52;;;;;;;7.70;2.30;;;;;;;9.22;93.82;102341.94;5053088;28;20466;-74
2023/05/27 04:50:19;;;;;;;7.60;2.67;;;;;;;9.25;94.19;102346.84;5053105;28;20482;-75
2023/05/27 04:52:45;;;;;;;8.23;2.60;;;;;;;9.44;93.65;102347.38;5053136;28;20521;-74
2023/05/27 04:55:12;;;;;;;14.00;2.70;;;;;;;9.61;93.68;102339.22;5052814;28;20961;-74
2023/05/27 04:57:41;;;;;;;6.60;2.60;;;;;;;9.69;94.17;102336.06;5053053;28;20505;-74
2023/05/27 05:00:22;;;;;;;10.07;2.70;;;;;;;9.85;94.23;102337.06;5053093;28;20446;-74
2023/05/27 05:02:49;;;;;;;7.00;2.20;;;;;;;9.94;94.39;102340.97;5053039;28;20466;-74
2023/05/27 05:05:17;;;;;;;7.30;1.97;;;;;;;10.06;94.47;102335.41;5053025;28;20489;-75
2023/05/27 05:07:44;;;;;;;6.33;2.10;;;;;;;10.18;94.62;102329.84;5053412;28;20489;-74
2023/05/27 05:10:11;;;;;;;6.80;2.50;;;;;;;10.27;94.64;102333.75;5056989;28;20495;-75
2023/05/27 05:12:38;;;;;;;6.50;2.17;;;;;;;10.36;95.02;102334.94;5057112;28;20530;-75
2023/05/27 05:15:06;;;;;;;12.87;3.00;;;;;;;10.45;94.75;102329.88;5056963;28;20813;-73
2023/05/27 05:17:33;;;;;;;7.60;2.27;;;;;;;10.57;94.57;102330.50;5056568;28;20461;-73
2023/05/27 05:20:00;;;;;;;6.73;2.30;;;;;;;10.68;94.39;102326.81;5056583;28;20935;-72
2023/05/27 05:22:28;;;;;;;9.97;3.00;;;;;;;10.81;94.28;102331.00;5056874;28;20477;-73
2023/05/27 05:24:55;;;;;;;8.67;2.30;;;;;;;10.84;94.40;102330.47;5056471;28;20442;-73
2023/05/27 05:27:22;;;;;;;12.70;2.53;;;;;;;10.96;94.51;102330.28;5056691;28;20819;-72
2023/05/27 05:29:48;;;;;;;16.30;2.60;;;;;;;11.05;94.40;102332.25;5056654;28;20491;-72
2023/05/27 05:32:15;;;;;;;11.00;2.90;;;;;;;11.18;94.73;102335.59;5056429;28;20438;-72
2023/05/27 05:34:41;;;;;;;9.27;2.37;;;;;;;11.28;94.63;102335.63;5056690;28;20460;-73
2023/05/27 05:37:10;;;;;;;7.50;2.17;;;;;;;11.40;95.06;102330.81;5056568;28;20446;-72
2023/05/27 05:39:38;;;;;;;17.63;3.33;;;;;;;11.47;94.68;102334.13;5056517;28;20468;-72
2023/05/27 05:42:06;;;;;;;7.97;2.60;;;;;;;11.59;94.62;102334.72;5056692;28;20877;-72
2023/05/27 05:44:34;;;;;;;11.60;2.43;;;;;;;11.65;94.05;102335.56;5056284;28;20798;-73
2023/05/27 05:47:00;;;;;;;8.37;2.60;;;;;;;11.79;92.99;102334.00;5056539;28;20812;-72
2023/05/27 05:49:27;;;;;;;6.50;2.13;;;;;;;11.94;92.51;102340.59;5056331;28;20485;-72
2023/05/27 05:51:53;;;;;;;10.27;2.83;;;;;;;12.03;91.78;102342.50;5056515;28;20478;-72
2023/05/27 05:54:20;;;;;;;7.20;1.97;;;;;;;12.14;91.75;102335.22;5056427;28;20529;-72
2023/05/27 05:56:48;;;;;;;14.43;2.70;;;;;;;12.24;91.21;102337.94;5056131;28;20437;-76
2023/05/27 05:59:15;;;;;;;12.70;2.37;;;;;;;12.31;91.20;102343.94;5056004;28;20494;-74
2023/05/27 06:01:41;;;;;;;10.90;2.17;;;;;;;12.41;90.22;102340.44;5056135;28;20537;-71
2023/05/27 06:04:08;;;;;;;5.80;1.63;;;;;;;12.52;88.21;102346.69;5056009;28;20437;-71
2023/05/27 06:06:34;;;;;;;8.80;2.50;;;;;;;12.65;87.53;102353.47;5056173;28;20437;-71
2023/05/27 06:09:01;;;;;;;6.13;2.00;;;;;;;12.71;87.06;102350.50;5055677;28;20581;-72
2023/05/27 06:11:28;;;;;;;5.93;1.50;;;;;;;12.80;86.44;102348.88;5055734;28;20434;-71
2023/05/27 06:13:56;;;;;;;6.10;1.60;;;;;;;12.91;85.88;102343.44;5055908;28;20466;-76
2023/05/27 06:16:22;;;;;;;5.20;1.40;;;;;;;12.99;85.83;102348.31;5055567;28;20886;-72
2023/05/27 06:18:49;;;;;;;8.60;2.43;;;;;;;13.07;85.13;102350.50;5054883;28;20972;-72
2023/05/27 06:21:15;;;;;;;7.93;1.53;;;;;;;13.16;83.33;102353.47;5055785;28;20444;-72
2023/05/27 06:23:42;;;;;;;6.47;1.10;;;;;;;13.29;80.74;102351.03;5055683;28;20533;-72
2023/05/27 06:26:09;;;;;;;5.90;1.37;;;;;;;13.41;79.27;102349.88;5055753;28;20442;-72
2023/05/27 06:28:35;;;;;;;6.10;1.43;;;;;;;13.50;79.03;102353.66;5055373;28;20466;-72
2023/05/27 06:31:03;;;;;;;9.97;1.57;;;;;;;13.65;79.42;102341.94;5055319;28;20513;-72
2023/05/27 06:33:30;;;;;;;9.27;1.47;;;;;;;13.72;78.17;102356.84;5055567;28;20446;-72
2023/05/27 06:35:57;;;;;;;8.17;1.80;;;;;;;13.83;77.26;102358.47;5055177;28;20544;-72
2023/05/27 06:38:24;;;;;;;8.90;1.57;;;;;;;13.94;75.33;102369.31;5055092;28;20458;-72
2023/05/27 06:40:50;;;;;;;5.33;1.20;;;;;;;14.01;74.07;102361.66;5055407;28;20478;-71
2023/05/27 06:43:17;;;;;;;5.70;1.10;;;;;;;14.10;72.96;102351.78;5055425;28;20481;-72
2023/05/27 06:45:44;;;;;;;8.30;1.60;;;;;;;14.20;71.67;102354.44;5055380;28;20486;-74
2023/05/27 06:48:12;;;;;;;7.07;1.10;;;;;;;14.28;66.09;102364.75;5055242;28;20571;-72
2023/05/27 06:50:38;;;;;;;6.83;1.30;;;;;;;14.35;64.49;102362.53;5055030;28;20916;-72
2023/05/27 06:53:05;;;;;;;4.47;0.80;;;;;;;14.43;62.72;102358.38;5055188;28;20547;-70
2023/05/27 06:55:31;;;;;;;4.50;0.80;;;;;;;14.51;60.11;102363.28;5054807;28;20525;-75
2023/05/27 06:57:58;;;;;;;7.57;1.20;;;;;;;14.66;61.05;102359.63;5054998;28;20899;-74
2023/05/27 07:00:25;;;;;;;5.40;1.20;;;;;;;14.74;60.78;102359.03;5054999;28;20434;-71
2023/05/27 07:02:52;;;;;;;8.90;0.93;;;;;;;14.84;59.80;102361.66;5054821;28;20479;-72
2023/05/27 07:05:20;;;;;;;21.00;1.23;;;;;;;14.93;59.15;102364.59;5054997;28;20490;-73
2023/05/27 07:07:47;;;;;;;4.63;0.70;;;;;;;15.01;58.69;102360.44;5054601;28;20474;-74
2023/05/27 07:10:13;;;;;;;6.33;1.33;;;;;;;15.09;58.02;102357.88;5054418;28;20959;-75
2023/05/27 07:12:40;;;;;;;4.50;0.67;;;;;;;15.08;54.78;102367.16;5054835;28;20802;-75
2023/05/27 07:15:08;;;;;;;5.17;0.73;;;;;;;15.15;54.51;102364.13;5054732;28;20529;-75
2023/05/27 07:17:34;;;;;;;4.27;0.70;;;;;;;15.26;55.84;102371.09;5054500;28;20573;-75
2023/05/27 07:20:01;;;;;;;4.10;0.53;;;;;;;15.31;55.04;102368.28;5054619;28;20495;-76
2023/05/27 07:22:29;;;;;;;4.30;0.57;;;;;;;15.36;55.22;102362.81;5054674;28;20442;-73
2023/05/27 07:24:56;;;;;;;5.50;1.00;;;;;;;15.43;53.74;102364.38;5054532;28;20524;-71
2023/05/27 07:27:23;;;;;;;7.70;1.03;;;;;;;15.52;53.15;102359.88;5054447;28;20521;-74
2023/05/27 07:29:49;;;;;;;4.10;0.60;;;;;;;15.58;52.60;102355.97;5053756;28;21028;-71
2023/05/27 07:32:16;;;;;;;5.67;0.80;;;;;;;15.65;51.97;102353.75;5053959;28;20530;-73
2023/05/27 07:34:42;;;;;;;4.20;0.40;;;;;;;15.72;52.40;102359.69;5054415;28;20450;-73
2023/05/27 07:37:09;;;;;;;4.50;0.70;;;;;;;15.79;52.62;102354.66;5054287;28;20529;-73
2023/05/27 07:39:37;;;;;;;3.90;0.40;;;;;;;15.85;51.54;102358.16;5054283;28;20633;-71
2023/05/27 07:42:05;;;;;;;4.87;0.80;;;;;;;15.88;50.96;102355.63;5053981;28;20533;-72
2023/05/27 07:44:32;;;;;;;4.20;0.60;;;;;;;15.91;50.85;102350.72;5053961;28;20506;-74
2023/05/27 07:47:00;;;;;;;4.17;0.60;;;;;;;15.91;48.67;102351.53;5054207;28;20449;-73
2023/05/27 07:49:27;;;;;;;9.83;1.03;;;;;;;15.89;48.39;102351.81;5054037;28;20607;-73
2023/05/27 07:51:54;;;;;;;4.03;0.43;;;;;;;16.02;48.59;102343.97;5053763;28;20446;-73
2023/05/27 07:54:21;;;;;;;4.20;0.60;;;;;;;16.05;48.40;102340.66;5053891;28;20450;-73
2023/05/27 07:56:49;;;;;;;5.20;0.90;;;;;;;16.17;48.45;102337.50;5053915;28;20820;-73
2023/05/27 07:59:15;;;;;;;4.60;0.70;;;;;;;16.24;47.81;102344.22;5053849;28;20474;-73
2023/05/27 08:01:42;;;;;;;5.53;1.03;;;;;;;16.23;48.04;102334.38;5053883;28;20453;-73
2023/05/27 08:04:08;;;;;;;4.60;0.70;;;;;;;16.26;46.43;102322.88;5053558;28;20882;-73
2023/05/27 08:06:35;;;;;;;4.67;0.60;;;;;;;16.22;45.82;102324.56;5053510;28;20453;-72
2023/05/27 08:09:04;;;;;;;9.17;0.80;;;;;;;16.14;45.36;102327.97;5053374;28;20908;-73
2023/05/27 08:11:32;;;;;;;4.10;0.50;;;;;;;16.17;44.23;102324.66;5053597;28;20482;-72
2023/05/27 08:14:00;;;;;;;5.47;0.70;;;;;;;16.22;44.35;102313.63;5053361;28;20482;-72
2023/05/27 08:16:26;;;;;;;4.07;0.60;;;;;;;16.27;43.42;102318.22;5053349;28;20881;-73
2023/05/27 08:18:53;;;;;;;4.60;0.70;;;;;;;16.33;44.08;102309.59;5053466;28;20458;-73
2023/05/27 08:21:19;;;;;;;4.10;0.50;;;;;;;16.40;44.21;102315.53;5053345;28;20935;-73
2023/05/27 08:23:46;;;;;;;5.63;0.63;;;;;;;16.46;42.79;102316.25;5053550;28;20472;-72
2023/05/27 08:26:13;;;;;;;5.03;0.87;;;;;;;16.47;43.14;102312.44;5053530;28;20461;-73
2023/05/27 08:28:39;;;;;;;5.10;0.80;;;;;;;16.57;42.21;102309.50;5053409;28;20458;-72
2023/05/27 08:31:07;;;;;;;4.57;0.80;;;;;;;16.66;41.77;102304.16;5053379;28;20577;-72
2023/05/27 08:33:34;;;;;;;4.40;0.60;;;;;;;16.67;42.39;102307.72;5053384;28;20442;-72
2023/05/27 08:36:01;;;;;;;4.20;0.60;;;;;;;16.76;43.61;102306.75;5053011;28;20446;-71
2023/05/27 08:38:27;;;;;;;4.00;0.50;;;;;;;16.88;41.96;102298.88;5053152;28;20825;-72
2023/05/27 08:40:54;;;;;;;7.30;1.00;;;;;;;16.99;41.61;102301.41;5052982;28;20939;-72
2023/05/27 08:43:22;;;;;;;4.50;0.80;;;;;;;17.08;42.11;102300.41;5053103;28;20442;-70
2023/05/27 08:45:49;;;;;;;4.20;0.57;;;;;;;17.11;40.73;102304.47;5053218;28;20504;-71
2023/05/27 08:48:17;;;;;;;7.17;0.60;;;;;;;17.07;39.07;102297.97;5053170;28;20466;-70
2023/05/27 08:50:44;;;;;;;4.20;0.50;;;;;;;17.06;39.35;102293.63;5053018;28;20477;-70
2023/05/27 08:53:11;;;;;;;4.60;0.80;;;;;;;17.17;41.29;102284.09;5052383;28;20550;-70
2023/05/27 08:55:40;;;;;;;4.97;0.60;;;;;;;17.27;40.90;102283.09;5052238;28;20446;-69
2023/05/27 08:58:08;;;;;;;4.30;0.60;;;;;;;17.31;41.89;102276.72;5052613;28;20520;-71
2023/05/27 09:00:35;;;;;;;4.13;0.50;;;;;;;17.34;40.42;102272.53;5053062;28;20805;-71
2023/05/27 09:03:02;;;;;;;4.10;0.47;;;;;;;17.47;41.82;102270.91;5052614;28;20442;-71
2023/05/27 09:05:30;;;;;;;4.20;0.50;;;;;;;17.57;41.85;102276.16;5052306;28;20442;-71
2023/05/27 09:07:56;;;;;;;4.20;0.60;;;;;;;17.64;41.72;102271.06;5051885;28;20514;-71
2023/05/27 09:10:23;;;;;;;4.10;0.53;;;;;;;17.69;40.23;102275.63;5051992;28;20979;-72
2023/05/27 09:12:51;;;;;;;4.20;0.57;;;;;;;17.74;39.22;102272.81;5052117;28;20806;-71
2023/05/27 09:15:18;;;;;;;4.40;0.80;;;;;;;17.76;38.91;102271.41;5052009;28;20540;-71
2023/05/27 09:17:47;;;;;;;4.30;0.57;;;;;;;17.84;39.83;102265.19;5051961;28;20458;-72
2023/05/27 09:20:13;;;;;;;4.47;0.63;;;;;;;17.85;39.35;102272.28;5052592;28;20460;-72
2023/05/27 09:22:42;;;;;;;6.20;0.70;;;;;;;17.85;39.47;102272.28;5052701;28;20446;-73
2023/05/27 09:25:10;;;;;;;4.13;0.50;;;;;;;17.98;39.67;102267.06;5052597;28;20438;-72
2023/05/27 09:27:36;;;;;;;4.30;0.73;;;;;;;18.01;37.59;102272.72;5051884;28;20501;-72
2023/05/27 09:30:10;;;;;;;4.73;0.60;;;;;;;18.02;38.22;102268.88;5052180;28;20478;-72
2023/05/27 09:32:37;;;;;;;4.33;0.50;;;;;;;18.19;39.54;102276.41;5051957;28;20817;-72
2023/05/27 09:35:07;;;;;;;4.87;1.00;;;;;;;18.28;38.93;102277.31;5052132;28;20478;-72
2023/05/27 09:37:34;;;;;;;6.43;0.90;;;;;;;18.39;36.88;102280.59;5051832;28;20482;-72
2023/05/27 09:40:07;;;;;;;4.20;0.60;;;;;;;18.38;37.31;102273.50;5052045;28;20445;-72
2023/05/27 09:42:41;;;;;;;4.13;0.50;;;;;;;18.31;37.75;102278.59;5052189;28;20799;-73
2023/05/27 09:45:12;;;;;;;5.73;1.10;;;;;;;18.44;37.49;102276.94;5051981;28;20435;-72
2023/05/27 09:47:40;;;;;;;4.10;0.60;;;;;;;18.44;36.46;102268.69;5052045;28;20474;-72
2023/05/27 09:50:09;;;;;;;6.03;0.93;;;;;;;18.46;37.92;102272.75;5052065;28;20478;-72
2023/05/27 09:52:37;;;;;;;4.87;0.60;;;;;;;18.59;37.80;102273.78;5051877;28;20434;-73
2023/05/27 09:55:07;;;;;;;4.87;0.77;;;;;;;18.74;37.91;102265.19;5054487;28;20438;-73
2023/05/27 09:57:34;;;;;;;5.20;0.83;;;;;;;18.82;39.06;102264.44;5055390;28;20939;-72
2023/05/27 10:00:05;;;;;;;4.93;0.87;;;;;;;18.87;37.79;102268.97;5055577;28;20492;-73
2023/05/27 10:02:32;;;;;;;4.30;0.60;;;;;;;18.98;38.70;102266.75;5055353;28;20916;-72
2023/05/27 10:05:00;;;;;;;4.60;0.80;;;;;;;19.06;37.56;102257.75;5055669;28;20918;-73
2023/05/27 10:07:27;;;;;;;4.03;0.50;;;;;;;19.17;35.65;102256.34;5055264;28;20458;-73
2023/05/27 10:09:54;;;;;;;4.10;0.50;;;;;;;19.14;36.45;102255.03;5055174;28;20799;-72
2023/05/27 10:12:22;;;;;;;4.67;0.87;;;;;;;19.22;37.31;102242.44;5055538;28;20445;-72
2023/05/27 10:14:50;;;;;;;4.47;0.90;;;;;;;19.28;36.92;102248.59;5055367;28;20438;-73
2023/05/27 10:17:16;;;;;;;4.40;0.60;;;;;;;19.39;37.72;102238.94;5055350;28;20454;-72
2023/05/27 10:20:04;;;;;;;4.87;0.73;;;;;;;19.52;36.17;102243.50;5055284;28;20464;-72
2023/05/27 10:22:39;;;;;;;4.63;0.83;;;;;;;19.60;37.12;102244.59;5051828;28;20537;-72
2023/05/27 10:25:13;;;;;;;5.20;0.83;;;;;;;19.75;36.60;102237.88;5055654;28;20522;-72
2023/05/27 10:27:45;;;;;;;4.37;0.77;;;;;;;19.76;34.41;102245.00;5054842;28;20461;-73
2023/05/27 10:30:12;;;;;;;4.83;0.83;;;;;;;19.69;36.25;102247.41;5055176;28;20454;-72
2023/05/27 10:32:44;;;;;;;6.33;0.73;;;;;;;19.62;35.18;102234.16;5055224;28;20541;-72
2023/05/27 10:35:11;;;;;;;4.70;1.07;;;;;;;19.78;36.11;102231.72;5055194;28;20433;-73
2023/05/27 10:37:38;;;;;;;4.57;0.67;;;;;;;19.91;35.41;102223.28;5054949;28;20459;-73
2023/05/27 10:40:07;;;;;;;4.67;0.80;;;;;;;19.87;34.32;102224.28;5055077;28;20493;-73
2023/05/27 10:42:33;;;;;;;5.80;0.70;;;;;;;19.84;34.75;102220.25;5055182;28;20525;-73
2023/05/27 10:45:07;;;;;;;4.07;0.63;;;;;;;20.00;35.31;102219.75;5054985;28;20811;-73
2023/05/27 10:47:37;;;;;;;4.50;0.67;;;;;;;20.28;37.52;102218.25;5054852;28;20781;-73
2023/05/27 10:50:13;;;;;;;4.10;0.57;;;;;;;20.49;36.48;102215.63;5054951;28;20450;-73
2023/05/27 10:52:40;;;;;;;4.80;0.77;;;;;;;20.65;36.39;102215.91;5054534;28;20900;-72
2023/05/27 10:55:07;;;;;;;7.50;1.07;;;;;;;20.68;33.30;102208.94;5054769;28;20458;-72
2023/05/27 10:57:35;;;;;;;4.20;0.60;;;;;;;20.87;34.09;102214.84;5054365;28;20470;-72
2023/05/27 11:00:05;;;;;;;4.40;0.80;;;;;;;20.94;34.75;102214.31;5054548;28;20450;-73
2023/05/27 11:02:35;;;;;;;5.40;0.93;;;;;;;20.95;34.79;102208.50;5054334;28;20863;-72
2023/05/27 11:05:03;;;;;;;4.87;0.83;;;;;;;21.14;35.84;102211.63;5054394;28;20450;-72
2023/05/27 11:07:29;;;;;;;5.10;0.80;;;;;;;21.29;33.41;102201.94;5054217;28;20474;-73
2023/05/27 11:09:56;;;;;;;4.40;0.50;;;;;;;21.40;34.74;102196.91;5054458;28;20445;-72
2023/05/27 11:12:24;;;;;;;12.60;0.83;;;;;;;21.60;34.76;102187.00;5054260;28;21011;-73
2023/05/27 11:14:53;;;;;;;4.63;0.90;;;;;;;22.13;36.19;102190.94;5054185;28;20442;-72
2023/05/27 11:17:21;;;;;;;4.73;0.80;;;;;;;22.83;33.80;102186.19;5053897;28;20537;-72
2023/05/27 11:19:49;;;;;;;4.87;1.00;;;;;;;23.21;30.45;102184.25;5053841;28;20487;-73
2023/05/27 11:22:17;;;;;;;4.10;0.53;;;;;;;23.75;33.39;102181.94;5054391;28;20495;-73
2023/05/27 11:24:56;;;;;;;6.13;0.97;;;;;;;24.42;30.21;102185.75;5054083;28;20808;-73
2023/05/27 11:27:23;;;;;;;4.03;0.60;;;;;;;24.55;30.94;102186.47;5053691;28;20444;-73
2023/05/27 11:29:51;;;;;;;4.57;0.93;;;;;;;24.81;30.21;102180.38;5054046;28;20442;-73